Flight Track Log - Related Links

Times and Time Zones

All times are in EST time to prevent confusion due to time zone crossing. See the WJA202 flight status page for this flight to view local times or setup timezone preferences in your user account.

Time Position Orientation Groundspeed Altitude Reporting Facility
EST Latitude Longitude Course Direction KTS MPH feet Rate Location/Type
Sat 09:19:16 PM 51.1333 -114.1500 309° West 200 230 7,200  Level Edmonton Center
Sat 09:20:16 PM 51.1833 -114.1833 337° Northwest 260 299 9,100 2,150 Climbing Edmonton Center
Sat 09:21:16 PM 51.1667 -114.0500 101° East 320 368 11,500 2,800 Climbing Edmonton Center
Sat 09:22:16 PM 51.1500 -113.9167 101° East 340 391 14,700 3,100 Climbing Edmonton Center
Sat 09:23:00 PM 51.0167 -112.7239 90° East  Level FlightAware Approximate
Sat 09:23:16 PM 51.1167 -113.7333 106° East 380 437 17,700  Level Edmonton Center
Sat 09:24:16 PM 51.0667 -113.5667 115° Southeast 410 472 20,600 2,700 Climbing Edmonton Center
Sat 09:25:16 PM 51.0333 -113.4000 108° East 420 483 23,100 2,500 Climbing Edmonton Center
Sat 09:26:16 PM 51.0333 -113.2167 90° East 430 495 25,600 2,250 Climbing Edmonton Center
Sat 09:27:16 PM 51.0167 -113.0167 97° East 450 518 27,600 2,000 Climbing Edmonton Center
Sat 09:28:16 PM 51.0000 -112.8000 97° East 460 529 29,600 1,800 Climbing Edmonton Center
Sat 09:29:16 PM 51.0000 -112.5833 90° East 480 552 31,200 1,750 Climbing Edmonton Center
Sat 09:30:16 PM 50.9667 -112.3667 104° East 490 564 33,100 1,950 Climbing Edmonton Center
Sat 09:31:16 PM 50.9500 -112.1500 97° East 490 564 35,100 1,850 Climbing Edmonton Center
Sat 09:32:16 PM 50.9333 -111.9333 97° East 480 552 36,800 1,500 Climbing Edmonton Center
Sat 09:33:16 PM 50.9167 -111.7333 97° East 480 552 38,100 1,100 Climbing Edmonton Center
Sat 09:34:16 PM 50.8833 -111.5167 104° East 470 541 39,000 450 Climbing Edmonton Center
Sat 09:35:16 PM 50.8833 -111.3000 90° East 470 541 39,000  Level Edmonton Center
Sat 09:36:16 PM 50.8833 -111.0833 90° East 470 541 39,000  Level Edmonton Center
Sat 09:37:16 PM 50.8833 -110.9000 90° East 470 541 39,000  Level Edmonton Center
Sat 09:38:16 PM 50.8667 -110.6833 97° East 470 541 39,000  Level Edmonton Center
Sat 09:39:16 PM 50.8667 -110.4667 90° East 470 541 39,000  Level Edmonton Center
Sat 09:40:16 PM 50.8500 -110.2833 98° East 470 541 39,000  Level Edmonton Center
Sat 09:41:16 PM 50.8500 -110.0667 90° East 470 541 39,000  Level Edmonton Center
Sat 09:42:16 PM 50.8500 -109.8500 90° East 470 541 39,000  Level Edmonton Center
Sat 09:43:16 PM 50.8333 -109.6333 97° East 470 541 39,000  Level Edmonton Center
Sat 09:44:16 PM 50.8333 -109.4500 90° East 470 541 39,000  Level Edmonton Center
Sat 09:45:16 PM 50.8333 -109.2333 90° East 470 541 39,000  Level Edmonton Center
Sat 09:47:15 PM 50.8333 -108.8500 90° East 480 552 39,000  Level Winnipeg Center
Sat 09:48:15 PM 50.8333 -108.6500 90° East 480 552 39,000  Level Winnipeg Center
Sat 09:49:15 PM 50.8167 -108.4333 97° East 480 552 39,000  Level Winnipeg Center
Sat 09:50:15 PM 50.8000 -108.2167 97° East 470 541 39,000  Level Winnipeg Center
Sat 09:51:15 PM 50.8000 -108.0333 90° East 470 541 39,000  Level Winnipeg Center
Sat 09:52:15 PM 50.8000 -107.8000 90° East 470 541 39,000  Level Winnipeg Center
Sat 09:53:15 PM 50.7833 -107.6000 97° East 470 541 39,000  Level Winnipeg Center
Sat 09:54:15 PM 50.7833 -107.4000 90° East 470 541 39,000  Level Winnipeg Center
Sat 09:55:15 PM 50.7667 -107.2000 97° East 470 541 39,000  Level Winnipeg Center
Sat 09:56:15 PM 50.7500 -106.9667 96° East 470 541 39,000  Level Winnipeg Center
Sat 09:57:15 PM 50.7500 -106.7667 90° East 470 541 39,000  Level Winnipeg Center
Sat 09:58:15 PM 50.7333 -106.5833 98° East 470 541 39,000  Level Winnipeg Center
Sat 09:59:16 PM 50.7167 -106.3167 96° East 470 541 39,000  Level Edmonton Center
Sat 10:00:15 PM 50.7167 -106.1500 90° East 470 541 39,000  Level Winnipeg Center
Sat 10:01:15 PM 50.7000 -105.9333 97° East 470 541 39,000  Level Winnipeg Center
Sat 10:02:15 PM 50.7000 -105.7333 90° East 470 541 39,000  Level Winnipeg Center
Sat 10:03:15 PM 50.6833 -105.5333 97° East 470 541 39,000  Level Winnipeg Center
Sat 10:04:15 PM 50.6833 -105.3167 90° East 470 541 39,000  Level Winnipeg Center
Sat 10:05:15 PM 50.6667 -105.1167 97° East 470 541 39,000  Level Winnipeg Center
Sat 10:06:15 PM 50.6500 -104.9167 97° East 470 541 39,000  Level Winnipeg Center
Sat 10:07:15 PM 50.6167 -104.7000 104° East 470 541 39,000  Level Winnipeg Center
Sat 10:08:15 PM 50.6000 -104.4833 97° East 470 541 39,000  Level Winnipeg Center
Sat 10:09:15 PM 50.5667 -104.3000 106° East 470 541 39,000  Level Winnipeg Center
Sat 10:10:15 PM 50.5500 -104.1167 98° East 470 541 39,000  Level Winnipeg Center
Sat 10:11:15 PM 50.5167 -103.9000 104° East 470 541 39,000  Level Winnipeg Center
Sat 10:12:15 PM 50.5000 -103.6833 97° East 470 541 39,000  Level Winnipeg Center
Sat 10:13:15 PM 50.4667 -103.4833 105° East 480 552 39,000  Level Winnipeg Center
Sat 10:14:15 PM 50.4500 -103.2833 97° East 480 552 39,000  Level Winnipeg Center
Sat 10:15:15 PM 50.4167 -103.0833 105° East 480 552 39,000  Level Winnipeg Center
Sat 10:16:15 PM 50.4000 -102.8833 97° East 480 552 39,000  Level Winnipeg Center
Sat 10:17:15 PM 50.3500 -102.6833 111° Southeast 470 541 39,000  Level Winnipeg Center
Sat 10:18:15 PM 50.3333 -102.4667 97° East 470 541 39,000  Level Winnipeg Center
Sat 10:19:15 PM 50.3000 -102.2667 105° East 470 541 39,000  Level Winnipeg Center
Sat 10:20:15 PM 50.2667 -102.0667 105° East 470 541 39,000  Level Winnipeg Center
Sat 10:21:15 PM 50.2333 -101.8667 105° East 480 552 39,000  Level Winnipeg Center
Sat 10:22:15 PM 50.2000 -101.6667 105° East 480 552 39,000  Level Winnipeg Center
Sat 10:23:15 PM 50.1667 -101.4667 105° East 470 541 39,000  Level Winnipeg Center
Sat 10:24:15 PM 50.1333 -101.2667 105° East 480 552 39,000  Level Winnipeg Center
Sat 10:25:15 PM 50.0833 -101.0667 111° Southeast 480 552 39,000  Level Winnipeg Center
Sat 10:26:15 PM 50.0667 -100.8833 98° East 470 541 39,000  Level Winnipeg Center
Sat 10:27:15 PM 50.0167 -100.6667 110° East 480 552 39,000  Level Winnipeg Center
Sat 10:28:15 PM 50.0000 -100.4833 98° East 480 552 39,000 -800 Level Winnipeg Center
Sat 10:29:15 PM 49.9500 -100.2667 110° East 470 541 37,400 -2,200 Descending Winnipeg Center
Sat 10:30:15 PM 49.9167 -100.0833 106° East 470 541 34,600 -2,450 Descending Winnipeg Center
Sat 10:31:15 PM 49.9000 -99.9000 98° East 460 529 32,500 -2,200 Descending Winnipeg Center
Sat 10:32:15 PM 49.8833 -99.7000 97° East 440 506 30,200 -2,150 Descending Winnipeg Center
Sat 10:33:15 PM 49.8667 -99.5167 98° East 430 495 28,200 -2,100 Descending Winnipeg Center
Sat 10:34:15 PM 49.8500 -99.3333 98° East 410 472 26,000 -2,250 Descending Winnipeg Center
Sat 10:35:15 PM 49.8833 -99.1667 73° East 390 449 23,700 -2,450 Descending Winnipeg Center
Sat 10:36:15 PM 49.8833 -98.9833 90° East 380 437 21,100 -2,250 Descending Winnipeg Center
Sat 10:37:15 PM 49.9000 -98.8333 80° East 370 426 19,200 -1,650 Descending Winnipeg Center
Sat 10:38:15 PM 49.9000 -98.7000 90° East 350 403 17,800 -1,600 Descending Winnipeg Center
Sat 10:39:15 PM 49.9167 -98.5500 80° East 330 380 16,000 -1,700 Descending Winnipeg Center
Sat 10:40:15 PM 49.9167 -98.4167 90° East 320 368 14,400 -1,650 Descending Winnipeg Center
Sat 10:41:15 PM 49.9333 -98.2833 79° East 310 357 12,700 -1,600 Descending Winnipeg Center
Sat 10:42:15 PM 49.9333 -98.1667 90° East 300 345 11,200 -1,350 Descending Winnipeg Center
Sat 10:43:15 PM 49.9500 -98.0333 79° East 280 322 10,000 -1,200 Descending Winnipeg Center
Sat 10:44:15 PM 49.9667 -97.9333 75° East 270 311 8,800 -1,250 Descending Winnipeg Center
Sat 10:45:15 PM 49.9833 -97.8167 77° East 260 299 7,500 -1,250 Descending Winnipeg Center
Sat 10:46:15 PM 49.9833 -97.7000 90° East 260 299 6,300 -1,200 Descending Winnipeg Center
Sat 10:47:15 PM 49.9833 -97.5833 90° East 240 276 5,100 -950 Descending Winnipeg Center
Sat 10:48:15 PM 49.9667 -97.4833 104° East 210 242 4,400 -650 Descending Winnipeg Center
Sat 10:49:15 PM 49.9667 -97.4333 90° East 180 207 3,800 -800 Descending Winnipeg Center
Sat 10:50:15 PM 49.9667 -97.3500 90° East 180 207 2,800 -950 Descending Winnipeg Center
Sat 10:51:15 PM 49.9333 -97.3000 136° Southeast 150 173 1,900 -850 Descending Winnipeg Center
Sat 10:52:15 PM 49.9167 -97.2500 117° Southeast 130 150 1,100 -550 Descending Winnipeg Center
Sat 10:53:15 PM 49.8833 -97.2333 162° South 130 150 800 -300 Descending Winnipeg Center

Login

Don't have an account? Register now (free) for customized features, flight alerts, and more!